Time;durP1;ratioP1;P1;durP2;ratioP2;P2;SDS_P1;SDS_P2;PMS_P1;PMS_P2;Temp;Humidity;BMP_temperature;BMP_pressure;BME280_temperature;BME280_humidity;BME280_pressure;Samples;Min_cycle;Max_cycle;Signal;HPM_P1;HPM_P2
2022/03/27 00:02:10;;;;;;;10.07;3.13;;;5.10;92.70;;;;;;5029162;28;20227;-71
2022/03/27 00:04:59;;;;;;;10.67;4.03;;;5.10;92.90;;;;;;5054703;28;20227;-71
2022/03/27 00:07:48;;;;;;;7.83;3.40;;;5.10;93.20;;;;;;5051669;28;20236;-70
2022/03/27 00:13:48;;;;;;;10.87;3.80;;;5.10;93.40;;;;;;5053221;28;20825;-67
2022/03/27 00:16:37;;;;;;;10.57;3.27;;;5.00;93.70;;;;;;5053562;28;20273;-69
2022/03/27 00:19:26;;;;;;;11.80;3.57;;;4.90;94.20;;;;;;5038435;28;20552;-69
2022/03/27 00:22:15;;;;;;;13.50;3.63;;;4.90;94.40;;;;;;5062188;28;20223;-69
2022/03/27 00:25:05;;;;;;;10.43;3.30;;;4.90;94.40;;;;;;5056678;28;20329;-68
2022/03/27 00:27:55;;;;;;;7.30;3.23;;;4.90;94.40;;;;;;5025497;28;20224;-67
2022/03/27 00:30:44;;;;;;;10.00;3.10;;;4.90;94.10;;;;;;5040554;28;20228;-68
2022/03/27 00:33:34;;;;;;;12.43;3.17;;;4.90;93.70;;;;;;5056212;28;20224;-67
2022/03/27 00:36:23;;;;;;;9.63;3.00;;;4.90;93.60;;;;;;5062068;28;20215;-67
2022/03/27 00:39:15;;;;;;;9.97;3.40;;;4.80;93.50;;;;;;5037529;28;20237;-69
2022/03/27 00:42:05;;;;;;;9.00;3.10;;;4.70;93.30;;;;;;5069550;28;20276;-68
2022/03/27 00:44:55;;;;;;;9.33;2.80;;;4.80;93.00;;;;;;5060222;28;20222;-68
2022/03/27 00:47:44;;;;;;;6.37;2.93;;;4.70;93.20;;;;;;5037898;28;20730;-67
2022/03/27 00:50:33;;;;;;;8.40;2.90;;;4.70;93.10;;;;;;5050419;28;20231;-66
2022/03/27 00:53:22;;;;;;;9.33;3.20;;;4.60;93.10;;;;;;5053856;28;20316;-73
2022/03/27 00:56:11;;;;;;;9.17;2.90;;;4.60;93.50;;;;;;5039324;28;20231;-69
2022/03/27 00:59:00;;;;;;;9.67;2.80;;;4.60;93.20;;;;;;5054415;28;20236;-70
2022/03/27 01:01:50;;;;;;;9.90;3.63;;;4.60;93.30;;;;;;5036887;28;20233;-71
2022/03/27 01:04:45;;;;;;;7.33;3.13;;;4.60;93.20;;;;;;5069603;28;20470;-72
2022/03/27 01:07:36;;;;;;;6.83;2.63;;;4.60;93.20;;;;;;5034496;28;20229;-72
2022/03/27 01:10:25;;;;;;;7.20;2.77;;;4.60;93.20;;;;;;5051007;28;20230;-72
2022/03/27 01:13:17;;;;;;;7.33;2.60;;;4.70;93.10;;;;;;5033081;28;20312;-70
2022/03/27 01:16:15;;;;;;;7.23;3.10;;;4.60;93.40;;;;;;5039527;28;20229;-71
2022/03/27 01:19:07;;;;;;;11.30;2.50;;;4.60;93.50;;;;;;5033456;28;20222;-71
2022/03/27 01:21:58;;;;;;;9.10;2.67;;;4.60;93.90;;;;;;5047892;28;20253;-72
2022/03/27 01:24:48;;;;;;;6.07;2.50;;;4.50;94.00;;;;;;5044213;28;20233;-72
2022/03/27 01:27:36;;;;;;;9.97;2.70;;;4.50;94.20;;;;;;5031288;28;20782;-72
2022/03/27 01:30:25;;;;;;;9.50;2.87;;;4.50;94.40;;;;;;5069426;28;20725;-76
2022/03/27 01:33:14;;;;;;;10.20;2.70;;;4.50;94.50;;;;;;5057427;28;20565;-76
2022/03/27 01:36:02;;;;;;;6.13;2.23;;;4.40;94.50;;;;;;5050549;28;20242;-74
2022/03/27 01:38:55;;;;;;;8.17;2.50;;;4.40;94.60;;;;;;5053124;28;20660;-72
2022/03/27 01:41:45;;;;;;;8.67;3.10;;;4.40;94.60;;;;;;5038596;28;20766;-74
2022/03/27 01:44:37;;;;;;;5.57;2.47;;;4.40;94.70;;;;;;5038888;28;20224;-73
2022/03/27 01:47:26;;;;;;;5.80;2.63;;;4.40;95.00;;;;;;5054293;28;20721;-74
2022/03/27 01:50:15;;;;;;;7.43;2.50;;;4.50;95.00;;;;;;5055029;28;20224;-74
2022/03/27 01:53:09;;;;;;;7.33;2.80;;;4.40;94.80;;;;;;5054203;28;20226;-75
2022/03/27 01:55:59;;;;;;;7.33;2.67;;;4.40;94.90;;;;;;5031878;28;20895;-72
2022/03/27 01:58:48;;;;;;;6.70;2.50;;;4.40;94.80;;;;;;5056121;28;20619;-72
2022/03/27 02:01:38;;;;;;;5.80;2.27;;;4.20;94.90;;;;;;5057534;28;20763;-72
2022/03/27 02:04:27;;;;;;;8.87;2.67;;;4.20;95.00;;;;;;5065528;28;20227;-72
2022/03/27 02:07:15;;;;;;;7.47;3.03;;;4.20;95.10;;;;;;5038545;28;20311;-71
2022/03/27 02:10:07;;;;;;;8.13;2.50;;;4.20;95.50;;;;;;5055153;28;20312;-70
2022/03/27 02:12:57;;;;;;;7.77;2.60;;;4.20;95.60;;;;;;5054378;28;21947;-72
2022/03/27 02:15:46;;;;;;;6.73;2.37;;;4.20;95.80;;;;;;5055022;28;20212;-70
2022/03/27 02:18:36;;;;;;;8.53;2.70;;;4.20;96.20;;;;;;5055145;28;20225;-71
2022/03/27 02:21:24;;;;;;;10.03;2.90;;;4.10;96.20;;;;;;5052878;28;20233;-71
2022/03/27 02:24:13;;;;;;;8.37;3.10;;;4.10;96.70;;;;;;5049598;28;20221;-73
2022/03/27 02:27:05;;;;;;;6.87;2.67;;;4.10;96.40;;;;;;5037964;28;20573;-71
2022/03/27 02:29:55;;;;;;;9.57;3.17;;;4.00;96.80;;;;;;5053704;28;20227;-71
2022/03/27 02:32:44;;;;;;;10.37;2.87;;;4.10;97.20;;;;;;5053684;28;20205;-71
2022/03/27 02:35:32;;;;;;;8.67;2.63;;;4.00;97.10;;;;;;5037068;28;20728;-73
2022/03/27 02:38:21;;;;;;;11.97;3.23;;;4.00;97.40;;;;;;5050908;28;20215;-73
2022/03/27 02:41:10;;;;;;;10.67;3.30;;;3.90;97.50;;;;;;5051663;28;20220;-73
2022/03/27 02:43:58;;;;;;;6.90;2.50;;;3.80;97.70;;;;;;5051431;28;20217;-72
2022/03/27 02:46:52;;;;;;;6.73;2.60;;;3.90;97.90;;;;;;5056036;28;20228;-73
2022/03/27 02:49:40;;;;;;;6.07;2.57;;;3.90;98.00;;;;;;5063349;28;20304;-75
2022/03/27 02:52:29;;;;;;;8.10;3.07;;;3.90;98.20;;;;;;5054804;28;20233;-74
2022/03/27 02:55:22;;;;;;;8.27;2.90;;;3.90;98.10;;;;;;5048112;28;20220;-76
2022/03/27 02:58:11;;;;;;;7.07;2.87;;;3.90;98.50;;;;;;5057600;28;20229;-75
2022/03/27 03:01:00;;;;;;;9.40;3.20;;;3.80;98.70;;;;;;5049673;28;20694;-75
2022/03/27 03:03:51;;;;;;;7.03;2.90;;;3.70;99.10;;;;;;5056818;28;20233;-76
2022/03/27 03:06:41;;;;;;;7.43;3.00;;;3.70;99.20;;;;;;5057630;28;20228;-72
2022/03/27 03:09:30;;;;;;;10.93;3.03;;;3.70;99.80;;;;;;5058014;28;20208;-72
2022/03/27 03:12:19;;;;;;;10.03;3.37;;;3.70;99.90;;;;;;5054880;28;20953;-72
2022/03/27 03:15:09;;;;;;;6.37;3.60;;;3.50;99.90;;;;;;5069090;28;20223;-72
2022/03/27 03:17:57;;;;;;;7.80;3.07;;;3.60;99.90;;;;;;5055692;28;20231;-72
2022/03/27 03:20:48;;;;;;;7.50;3.03;;;3.60;99.90;;;;;;5052464;28;20233;-71
2022/03/27 03:23:36;;;;;;;7.50;2.80;;;3.50;99.90;;;;;;5037868;28;20220;-72
2022/03/27 03:26:29;;;;;;;7.30;2.93;;;3.50;99.90;;;;;;5070076;28;20251;-71
2022/03/27 03:29:18;;;;;;;8.93;3.53;;;3.60;99.90;;;;;;5054789;28;20224;-72
2022/03/27 03:32:07;;;;;;;11.37;2.90;;;3.50;99.90;;;;;;5040203;28;20223;-72
2022/03/27 03:34:56;;;;;;;7.10;2.60;;;3.50;99.90;;;;;;5040141;28;20214;-73
2022/03/27 03:37:46;;;;;;;8.83;2.90;;;3.60;99.90;;;;;;5033128;28;20229;-70
2022/03/27 03:40:37;;;;;;;7.17;2.63;;;3.50;99.90;;;;;;5053576;28;20238;-71
2022/03/27 03:43:26;;;;;;;6.73;2.53;;;3.40;99.90;;;;;;5056245;28;20237;-70
2022/03/27 03:46:14;;;;;;;9.87;2.83;;;3.50;99.90;;;;;;5051146;28;21055;-71
2022/03/27 03:49:06;;;;;;;7.83;2.83;;;3.50;99.90;;;;;;5051150;28;20243;-69
2022/03/27 03:51:56;;;;;;;9.40;3.00;;;3.50;99.90;;;;;;5058651;28;20221;-68
2022/03/27 03:54:46;;;;;;;7.27;2.67;;;3.40;99.90;;;;;;5036672;28;20217;-68
2022/03/27 03:57:35;;;;;;;9.87;2.93;;;3.40;99.90;;;;;;5035721;28;20228;-67
2022/03/27 04:00:25;;;;;;;9.70;3.07;;;3.40;99.90;;;;;;5054374;28;20241;-68
2022/03/27 04:03:14;;;;;;;7.77;2.57;;;3.40;99.90;;;;;;5036423;28;20226;-69
2022/03/27 04:06:03;;;;;;;6.20;2.50;;;3.40;99.90;;;;;;5040280;28;20224;-68
2022/03/27 04:08:52;;;;;;;8.33;3.23;;;3.30;99.90;;;;;;5072127;28;20250;-68
2022/03/27 04:11:43;;;;;;;9.07;3.10;;;3.50;99.90;;;;;;5042421;28;20228;-67
2022/03/27 04:14:34;;;;;;;10.20;3.37;;;3.40;99.90;;;;;;5056265;28;20333;-69
2022/03/27 04:17:26;;;;;;;7.90;2.60;;;3.40;99.90;;;;;;5054495;28;20229;-70
2022/03/27 04:20:16;;;;;;;7.70;3.20;;;3.40;99.90;;;;;;5057651;28;20279;-70
2022/03/27 04:23:05;;;;;;;8.00;2.80;;;3.40;99.90;;;;;;5044715;28;20230;-70
2022/03/27 04:25:57;;;;;;;8.90;2.80;;;3.40;99.90;;;;;;5054193;28;20228;-68
2022/03/27 04:28:47;;;;;;;10.87;2.30;;;3.40;99.90;;;;;;5039323;28;20231;-68
2022/03/27 04:31:36;;;;;;;5.90;2.57;;;3.40;99.90;;;;;;5044677;28;20223;-68
2022/03/27 04:34:25;;;;;;;8.80;2.47;;;3.30;99.90;;;;;;5042776;28;20608;-69
2022/03/27 04:37:13;;;;;;;7.03;2.67;;;3.40;99.90;;;;;;5058023;28;20619;-69
2022/03/27 04:40:02;;;;;;;10.67;3.00;;;3.30;99.90;;;;;;5039721;28;20224;-68
2022/03/27 04:42:51;;;;;;;8.90;2.80;;;3.40;99.90;;;;;;5055176;28;20228;-69
2022/03/27 04:45:41;;;;;;;5.07;2.50;;;3.40;99.90;;;;;;5074082;28;20838;-68
2022/03/27 04:48:30;;;;;;;8.20;2.93;;;3.50;99.90;;;;;;5060422;28;20227;-70
2022/03/27 04:51:22;;;;;;;5.27;2.73;;;3.40;99.90;;;;;;5061900;28;20235;-68
2022/03/27 04:54:10;;;;;;;10.70;2.87;;;3.30;99.90;;;;;;5040064;28;20756;-67
2022/03/27 04:56:59;;;;;;;7.17;2.30;;;3.40;99.90;;;;;;5057926;28;20379;-68
2022/03/27 04:59:48;;;;;;;6.90;2.50;;;3.50;99.90;;;;;;5054557;28;20809;-69
2022/03/27 05:02:39;;;;;;;5.60;2.43;;;3.40;99.90;;;;;;5057663;28;20712;-68
2022/03/27 05:05:28;;;;;;;8.20;2.53;;;3.50;99.90;;;;;;5067987;28;20268;-67
2022/03/27 05:08:16;;;;;;;9.20;2.50;;;3.50;99.90;;;;;;5035550;28;20223;-67
2022/03/27 05:11:06;;;;;;;9.63;2.90;;;3.50;99.90;;;;;;5037571;28;20217;-69
2022/03/27 05:13:55;;;;;;;7.27;2.47;;;3.50;99.90;;;;;;5052759;28;20220;-68
2022/03/27 05:16:44;;;;;;;9.20;2.87;;;3.50;99.90;;;;;;5054205;28;20226;-70
2022/03/27 05:19:35;;;;;;;8.17;2.40;;;3.50;99.90;;;;;;5039038;28;20341;-71
2022/03/27 05:22:24;;;;;;;9.93;2.20;;;3.60;99.90;;;;;;5052166;28;20224;-70
2022/03/27 05:25:15;;;;;;;6.77;2.50;;;3.50;99.90;;;;;;5053352;28;20815;-70
2022/03/27 05:28:04;;;;;;;8.07;2.67;;;3.60;99.90;;;;;;5058427;28;20225;-70
2022/03/27 05:30:52;;;;;;;5.57;2.60;;;3.60;99.90;;;;;;5037843;28;20228;-71
2022/03/27 05:33:41;;;;;;;10.33;3.10;;;3.70;99.90;;;;;;5056880;28;20745;-67
2022/03/27 05:36:31;;;;;;;6.53;2.77;;;3.80;99.90;;;;;;5054392;28;20220;-70
2022/03/27 05:39:20;;;;;;;8.40;2.67;;;3.70;99.90;;;;;;5036499;28;20645;-72
2022/03/27 05:42:09;;;;;;;8.60;2.67;;;3.70;99.90;;;;;;5062572;28;20235;-71
2022/03/27 05:44:59;;;;;;;8.37;2.80;;;3.70;99.90;;;;;;5058449;28;20221;-71
2022/03/27 05:47:52;;;;;;;7.43;2.73;;;3.80;99.90;;;;;;5042867;28;20221;-72
2022/03/27 05:50:41;;;;;;;8.33;2.87;;;3.90;99.90;;;;;;5056870;28;20629;-71
2022/03/27 05:53:31;;;;;;;8.87;2.73;;;3.80;99.90;;;;;;5059192;28;20220;-72
2022/03/27 05:56:20;;;;;;;7.10;3.10;;;4.00;99.90;;;;;;5056028;28;20236;-72
2022/03/27 05:59:08;;;;;;;10.07;3.10;;;4.10;99.90;;;;;;5055709;28;20607;-70
2022/03/27 06:01:57;;;;;;;5.93;2.50;;;4.20;99.90;;;;;;5043276;28;20255;-70
2022/03/27 06:04:46;;;;;;;9.20;2.70;;;4.30;99.90;;;;;;5057783;28;20233;-71
2022/03/27 06:07:43;;;;;;;8.80;2.67;;;4.40;99.90;;;;;;5041370;28;20230;-70
2022/03/27 06:10:39;;;;;;;9.00;2.43;;;4.50;99.90;;;;;;5051331;28;20592;-73
2022/03/27 06:13:27;;;;;;;13.10;2.93;;;4.50;99.90;;;;;;5071539;28;20234;-72
2022/03/27 06:16:16;;;;;;;7.27;2.53;;;4.70;99.90;;;;;;5052754;28;20219;-70
2022/03/27 06:19:08;;;;;;;9.83;2.63;;;4.60;99.90;;;;;;5053867;28;20224;-69
2022/03/27 06:21:57;;;;;;;5.50;2.07;;;4.60;99.90;;;;;;5056209;28;20229;-69
2022/03/27 06:24:46;;;;;;;5.47;2.00;;;4.80;99.90;;;;;;5056108;28;20226;-70
2022/03/27 06:27:40;;;;;;;4.93;2.03;;;4.70;99.90;;;;;;5043564;28;20224;-70
2022/03/27 06:30:34;;;;;;;6.57;1.90;;;4.70;99.90;;;;;;5061529;28;20223;-71
2022/03/27 06:33:23;;;;;;;4.97;1.90;;;4.70;99.90;;;;;;5050666;28;20228;-66
2022/03/27 06:36:12;;;;;;;5.03;1.90;;;4.80;99.90;;;;;;5054115;28;20286;-68
2022/03/27 06:39:00;;;;;;;5.53;1.90;;;4.70;99.90;;;;;;5047729;28;20212;-67
2022/03/27 06:41:49;;;;;;;5.67;1.53;;;4.70;99.90;;;;;;5060991;28;20222;-67
2022/03/27 06:44:42;;;;;;;8.00;2.10;;;4.70;99.90;;;;;;5053981;28;20217;-66
2022/03/27 06:47:32;;;;;;;4.20;1.80;;;5.00;99.90;;;;;;5058725;28;20226;-67
2022/03/27 06:50:22;;;;;;;6.00;1.70;;;5.00;99.90;;;;;;5054418;28;20590;-66
2022/03/27 06:53:14;;;;;;;4.43;1.77;;;4.90;97.60;;;;;;5054241;28;20686;-68
2022/03/27 06:56:03;;;;;;;3.53;1.30;;;4.80;97.40;;;;;;5053380;28;20228;-68
2022/03/27 06:58:52;;;;;;;2.87;1.43;;;4.90;97.20;;;;;;5055100;28;20254;-67
2022/03/27 07:04:49;;;;;;;5.80;1.67;;;5.10;95.80;;;;;;5057388;28;20645;-66
2022/03/27 07:07:37;;;;;;;4.57;1.50;;;5.30;95.60;;;;;;5051555;28;20220;-68
2022/03/27 07:10:26;;;;;;;6.47;1.53;;;5.80;95.60;;;;;;5071083;28;20233;-68
2022/03/27 07:13:18;;;;;;;5.03;1.87;;;5.90;94.30;;;;;;5051559;28;20307;-69
2022/03/27 07:16:06;;;;;;;6.30;1.70;;;5.80;92.90;;;;;;5038242;28;20230;-70
2022/03/27 07:18:56;;;;;;;3.77;1.53;;;5.70;92.10;;;;;;5054878;28;20616;-69
2022/03/27 07:21:50;;;;;;;5.47;1.63;;;5.50;92.30;;;;;;5058618;28;20224;-73
2022/03/27 07:24:39;;;;;;;5.07;1.80;;;5.60;91.90;;;;;;5054899;28;20235;-72
2022/03/27 07:27:28;;;;;;;5.00;1.67;;;5.80;91.50;;;;;;5058032;28;20224;-69
2022/03/27 07:30:17;;;;;;;5.17;1.60;;;6.00;89.60;;;;;;5040931;28;20235;-67
2022/03/27 07:33:06;;;;;;;5.20;1.87;;;6.20;89.20;;;;;;5056810;28;20224;-68
2022/03/27 07:35:57;;;;;;;5.70;1.80;;;6.30;89.00;;;;;;5032785;28;20940;-70
2022/03/27 07:38:46;;;;;;;4.73;1.67;;;6.50;87.60;;;;;;5047245;28;20240;-71
2022/03/27 07:41:35;;;;;;;5.20;1.77;;;7.60;84.90;;;;;;5056327;28;20228;-71
2022/03/27 07:44:24;;;;;;;8.97;2.10;;;10.70;76.20;;;;;;5051916;28;20250;-70
2022/03/27 07:47:12;;;;;;;3.90;1.57;;;12.00;68.50;;;;;;5035033;28;20224;-69
2022/03/27 07:50:05;;;;;;;2.47;1.50;;;11.70;59.40;;;;;;5040415;28;20243;-68
2022/03/27 07:52:55;;;;;;;5.68;1.58;;;12.40;56.50;;;;;;5037331;28;20228;-71
2022/03/27 07:55:44;;;;;;;3.80;1.77;;;13.10;53.20;;;;;;5029469;28;20601;-68
2022/03/27 07:58:32;;;;;;;3.20;1.52;;;14.00;53.50;;;;;;5040925;28;20675;-70
2022/03/27 08:01:26;;;;;;;4.32;1.52;;;15.20;51.00;;;;;;5030314;28;20224;-64
2022/03/27 08:04:15;;;;;;;3.80;1.00;;;15.90;47.50;;;;;;5054127;28;20224;-66
2022/03/27 08:07:07;;;;;;;1.65;1.27;;;15.40;41.40;;;;;;5063041;28;20781;-70
2022/03/27 08:09:58;;;;;;;3.08;1.13;;;15.30;41.70;;;;;;5059705;28;20227;-67
2022/03/27 08:12:47;;;;;;;3.40;1.42;;;16.50;41.00;;;;;;5058910;28;20887;-70
2022/03/27 08:15:36;;;;;;;2.10;1.10;;;15.50;41.00;;;;;;5072756;28;20625;-67
2022/03/27 08:18:25;;;;;;;1.83;1.10;;;15.70;41.20;;;;;;5031333;28;20254;-67
2022/03/27 08:21:14;;;;;;;2.25;1.00;;;15.40;41.20;;;;;;5068298;28;20221;-68
2022/03/27 08:24:02;;;;;;;4.20;1.25;;;16.00;42.00;;;;;;5067642;28;20230;-68
2022/03/27 08:27:00;;;;;;;4.38;1.15;;;17.70;39.20;;;;;;5074022;28;20208;-67
2022/03/27 08:29:49;;;;;;;2.67;1.17;;;15.70;37.20;;;;;;5076463;28;20252;-69
2022/03/27 08:32:38;;;;;;;1.80;1.20;;;15.50;39.30;;;;;;5057792;28;20584;-68
2022/03/27 08:35:28;;;;;;;3.80;1.30;;;14.80;39.80;;;;;;5055737;28;20391;-68
2022/03/27 08:38:18;;;;;;;1.55;1.00;;;15.50;41.20;;;;;;5067758;28;20220;-70
2022/03/27 08:41:12;;;;;;;3.30;1.02;;;16.90;38.10;;;;;;5054183;28;20250;-65
2022/03/27 08:44:03;;;;;;;2.65;1.40;;;16.60;37.10;;;;;;5051967;28;20220;-71
2022/03/27 08:46:54;;;;;;;2.05;1.35;;;18.10;37.30;;;;;;5035017;28;20223;-72
2022/03/27 08:49:49;;;;;;;2.47;1.50;;;18.40;36.30;;;;;;5059683;28;20221;-72
2022/03/27 08:52:50;;;;;;;1.70;1.02;;;19.80;35.40;;;;;;5057531;28;20228;-72
2022/03/27 08:55:42;;;;;;;1.92;1.30;;;17.60;35.90;;;;;;5059340;28;20344;-77
2022/03/27 08:58:35;;;;;;;2.88;1.42;;;18.80;35.30;;;;;;5054805;28;20725;-73
2022/03/27 09:01:28;;;;;;;3.20;1.25;;;17.40;36.10;;;;;;5055338;28;20217;-77
2022/03/27 09:04:17;;;;;;;2.72;1.42;;;14.70;38.00;;;;;;5061042;28;20220;-78
2022/03/27 11:40:58;;;;;;;3.30;1.50;;;10.00;51.00;;;;;;5043339;27;20324;-67
2022/03/27 11:43:47;;;;;;;3.80;1.53;;;10.00;51.00;;;;;;5040149;28;20227;-72
2022/03/27 11:46:37;;;;;;;3.67;1.30;;;10.00;51.30;;;;;;5046615;28;20665;-71
2022/03/27 11:49:38;;;;;;;2.40;1.20;;;10.00;51.50;;;;;;5041025;28;20251;-71
2022/03/27 11:52:26;;;;;;;4.57;1.37;;;10.00;51.00;;;;;;5036898;28;20342;-68
2022/03/27 11:55:16;;;;;;;2.90;1.30;;;10.10;50.90;;;;;;5045327;28;20225;-69
2022/03/27 11:58:08;;;;;;;2.67;1.20;;;10.20;50.70;;;;;;5048417;28;20229;-71
2022/03/27 12:01:04;;;;;;;4.88;1.60;;;10.30;51.00;;;;;;5037701;28;20227;-70
2022/03/27 12:03:57;;;;;;;3.70;1.20;;;10.10;51.20;;;;;;5076491;28;20307;-71
2022/03/27 12:06:47;;;;;;;3.83;1.43;;;9.90;51.70;;;;;;5067224;28;20231;-73
2022/03/27 12:09:35;;;;;;;4.43;1.40;;;10.00;52.00;;;;;;5066142;28;20251;-71
2022/03/27 12:12:26;;;;;;;4.60;1.27;;;10.10;51.40;;;;;;5050543;28;20683;-71
2022/03/27 12:15:17;;;;;;;3.20;1.40;;;10.10;51.50;;;;;;5066668;28;20275;-69
2022/03/27 12:18:06;;;;;;;3.58;1.23;;;10.10;51.80;;;;;;5051026;28;20648;-67
2022/03/27 12:20:56;;;;;;;4.53;1.73;;;10.10;52.00;;;;;;5059676;28;20224;-68
2022/03/27 12:23:49;;;;;;;5.35;1.35;;;10.10;51.80;;;;;;5058977;28;21034;-68
2022/03/27 12:29:52;;;;;;;4.47;1.30;;;10.20;52.50;;;;;;5049945;28;20497;-69
2022/03/27 12:32:42;;;;;;;4.70;1.48;;;10.20;52.50;;;;;;5069980;28;20250;-71
2022/03/27 12:35:31;;;;;;;3.05;1.40;;;10.10;52.80;;;;;;5068059;28;20230;-71
2022/03/27 12:38:30;;;;;;;3.47;1.50;;;10.20;53.20;;;;;;5066024;28;20236;-70
2022/03/27 12:41:37;;;;;;;2.80;1.50;;;10.30;52.60;;;;;;5060034;28;20231;-64
2022/03/27 12:44:26;;;;;;;4.05;1.33;;;10.30;53.10;;;;;;5067689;28;20215;-64
2022/03/27 12:47:15;;;;;;;4.40;1.30;;;10.30;52.90;;;;;;5051406;28;20235;-66
2022/03/27 12:50:06;;;;;;;4.25;1.70;;;10.50;53.10;;;;;;5069833;28;20322;-66
2022/03/27 12:53:00;;;;;;;4.75;1.90;;;10.60;52.90;;;;;;5057336;28;20264;-67
2022/03/27 12:55:50;;;;;;;3.13;1.60;;;10.60;52.80;;;;;;5050301;28;20431;-66
2022/03/27 12:58:41;;;;;;;3.38;1.20;;;10.40;53.10;;;;;;5051015;28;20224;-67
2022/03/27 13:01:32;;;;;;;5.13;1.50;;;10.50;53.00;;;;;;5049769;28;20579;-67
2022/03/27 13:04:26;;;;;;;3.60;1.52;;;10.70;53.10;;;;;;5039250;28;20871;-66
2022/03/27 13:07:18;;;;;;;4.32;1.67;;;10.70;53.10;;;;;;5045610;28;20231;-68
2022/03/27 13:10:11;;;;;;;2.78;1.40;;;10.80;53.30;;;;;;5055477;28;20232;-68
2022/03/27 13:13:01;;;;;;;5.18;2.03;;;10.90;53.00;;;;;;5058175;28;20229;-66
2022/03/27 13:15:52;;;;;;;2.92;1.67;;;11.00;52.70;;;;;;5035994;28;20224;-67
2022/03/27 13:18:42;;;;;;;4.20;1.58;;;11.10;52.50;;;;;;5035762;28;20224;-66
2022/03/27 13:21:33;;;;;;;5.28;1.70;;;11.20;52.40;;;;;;5054685;28;20235;-65
2022/03/27 13:24:24;;;;;;;6.47;1.80;;;11.00;52.90;;;;;;5053975;28;20220;-65
2022/03/27 13:27:13;;;;;;;3.75;1.58;;;11.00;53.20;;;;;;5044210;28;20217;-65
2022/03/27 13:30:02;;;;;;;4.30;1.35;;;11.10;52.30;;;;;;5038305;28;20573;-66
2022/03/27 13:32:50;;;;;;;3.85;1.50;;;11.30;52.20;;;;;;5041040;28;20232;-66
2022/03/27 13:35:39;;;;;;;4.00;1.48;;;11.40;52.20;;;;;;5054233;28;20568;-66
2022/03/27 13:38:28;;;;;;;4.32;1.48;;;11.40;52.00;;;;;;5052964;28;20216;-65
2022/03/27 13:44:25;;;;;;;7.47;2.67;;;11.60;52.10;;;;;;5048175;28;20361;-66
2022/03/27 13:47:14;;;;;;;5.05;1.80;;;11.60;52.00;;;;;;5057410;28;20314;-67
2022/03/27 13:50:03;;;;;;;4.55;1.50;;;11.50;52.00;;;;;;5053430;28;20579;-68
2022/03/27 13:52:52;;;;;;;3.42;1.85;;;11.60;52.20;;;;;;5044021;28;20321;-66
2022/03/27 13:55:41;;;;;;;2.60;1.38;;;11.50;52.30;;;;;;5053160;28;20677;-66
2022/03/27 13:58:32;;;;;;;4.13;1.30;;;11.40;52.20;;;;;;5050565;28;20229;-67
2022/03/27 14:01:20;;;;;;;3.67;1.45;;;11.60;52.50;;;;;;5052067;28;20311;-65
2022/03/27 14:04:10;;;;;;;3.28;1.55;;;11.60;52.60;;;;;;5052882;28;20224;-65
2022/03/27 14:07:01;;;;;;;5.95;1.83;;;11.40;52.10;;;;;;5037563;28;20216;-65
2022/03/27 14:09:50;;;;;;;3.80;1.60;;;11.60;52.50;;;;;;5048298;28;21665;-64
2022/03/27 14:12:44;;;;;;;4.47;1.42;;;11.60;52.60;;;;;;5052611;28;20325;-65
2022/03/27 14:15:34;;;;;;;5.20;1.52;;;11.50;52.90;;;;;;5033157;28;20325;-65
2022/03/27 14:18:22;;;;;;;4.30;1.40;;;11.60;52.60;;;;;;5039244;28;20235;-67
2022/03/27 14:21:12;;;;;;;3.42;1.90;;;11.00;52.70;;;;;;5050356;28;20227;-67
2022/03/27 14:24:01;;;;;;;6.43;1.50;;;11.00;53.40;;;;;;5038181;28;20706;-67
2022/03/27 14:26:49;;;;;;;3.53;1.50;;;10.90;54.40;;;;;;5040033;28;20228;-68
2022/03/27 14:29:38;;;;;;;4.95;1.33;;;10.90;53.80;;;;;;5040689;28;20216;-67
2022/03/27 14:32:29;;;;;;;3.53;1.38;;;10.90;53.90;;;;;;5042369;28;20661;-67
2022/03/27 14:35:19;;;;;;;7.60;2.00;;;10.80;53.80;;;;;;5053453;28;20225;-67
2022/03/27 14:38:08;;;;;;;5.35;2.22;;;10.70;54.10;;;;;;5054258;28;20227;-67
2022/03/27 14:40:58;;;;;;;7.10;2.10;;;10.70;54.20;;;;;;5039599;28;20223;-66
2022/03/27 14:43:47;;;;;;;5.75;2.03;;;10.80;54.30;;;;;;5054922;28;20229;-66
2022/03/27 14:46:37;;;;;;;6.40;1.70;;;10.80;54.20;;;;;;5040871;28;20229;-67
2022/03/27 14:49:27;;;;;;;8.27;1.80;;;10.60;54.10;;;;;;5048098;28;20220;-69
2022/03/27 14:52:20;;;;;;;4.20;1.65;;;10.50;54.50;;;;;;5054831;28;20216;-67
2022/03/27 14:58:17;;;;;;;3.63;1.40;;;10.50;55.00;;;;;;5049079;28;20220;-67
2022/03/27 15:01:06;;;;;;;2.67;1.42;;;10.40;55.00;;;;;;5054356;28;20594;-67
2022/03/27 15:03:56;;;;;;;7.47;1.83;;;10.50;55.00;;;;;;5050473;28;20217;-67
2022/03/27 15:06:47;;;;;;;3.97;1.80;;;10.40;55.10;;;;;;5052246;28;20444;-67
2022/03/27 15:09:35;;;;;;;4.72;1.75;;;10.30;54.90;;;;;;5051048;28;20235;-68
2022/03/27 15:12:25;;;;;;;3.80;1.80;;;10.30;55.20;;;;;;5033936;28;20217;-66
2022/03/27 15:15:14;;;;;;;3.42;1.70;;;10.30;55.60;;;;;;5046739;28;20235;-67
2022/03/27 15:18:03;;;;;;;4.57;1.70;;;10.30;55.40;;;;;;5050318;28;20306;-67
2022/03/27 15:20:51;;;;;;;4.88;1.98;;;10.30;55.50;;;;;;5036936;28;20223;-68
2022/03/27 15:23:42;;;;;;;3.95;1.88;;;10.30;55.30;;;;;;5056486;28;20227;-69
2022/03/27 15:26:31;;;;;;;4.53;1.80;;;10.30;55.30;;;;;;5057864;28;20228;-69
2022/03/27 15:29:20;;;;;;;4.13;1.80;;;10.20;55.60;;;;;;5039059;28;20229;-69
2022/03/27 15:32:09;;;;;;;4.13;2.00;;;10.20;55.70;;;;;;5057430;28;20227;-68
2022/03/27 15:34:59;;;;;;;3.73;1.60;;;10.20;55.90;;;;;;5055251;28;20461;-68
2022/03/27 15:37:52;;;;;;;7.13;1.97;;;10.20;55.90;;;;;;5058147;28;20216;-68
2022/03/27 15:40:44;;;;;;;7.03;1.87;;;10.10;55.90;;;;;;5046516;28;20232;-70
2022/03/27 15:43:35;;;;;;;3.63;1.67;;;10.10;55.80;;;;;;5040289;28;20224;-67
2022/03/27 15:46:23;;;;;;;5.43;1.97;;;10.10;56.10;;;;;;5056490;28;20227;-67
2022/03/27 15:49:12;;;;;;;6.60;2.17;;;10.00;56.30;;;;;;5043299;28;20234;-67
2022/03/27 15:52:02;;;;;;;5.73;2.40;;;10.10;56.20;;;;;;5058200;28;20217;-68
2022/03/27 15:54:51;;;;;;;13.93;6.17;;;10.10;56.50;;;;;;5054957;28;20242;-68
2022/03/27 15:57:42;;;;;;;9.87;3.50;;;10.00;56.60;;;;;;5057432;28;20216;-66
2022/03/27 16:00:31;;;;;;;9.77;5.33;;;9.90;56.90;;;;;;5035035;28;20676;-67
2022/03/27 16:03:19;;;;;;;7.53;2.03;;;10.00;56.50;;;;;;5035840;28;21945;-66
2022/03/27 16:06:10;;;;;;;4.87;1.90;;;10.00;56.20;;;;;;5053167;28;20230;-67
2022/03/27 16:09:02;;;;;;;5.90;2.40;;;10.00;56.30;;;;;;5057502;28;20232;-66
2022/03/27 16:11:51;;;;;;;4.83;2.60;;;9.90;56.40;;;;;;5054930;28;20331;-66
2022/03/27 16:14:41;;;;;;;6.57;2.40;;;9.80;56.30;;;;;;5038687;28;20702;-66
2022/03/27 16:17:30;;;;;;;4.70;2.40;;;9.80;56.20;;;;;;5051932;28;20247;-66
2022/03/27 16:20:20;;;;;;;3.70;2.00;;;9.80;56.40;;;;;;5055122;28;20226;-66
2022/03/27 16:23:08;;;;;;;4.60;2.20;;;9.70;56.30;;;;;;5051408;28;20234;-66
2022/03/27 16:25:58;;;;;;;7.67;2.73;;;9.80;56.40;;;;;;5053126;28;20216;-67
2022/03/27 16:28:50;;;;;;;4.30;2.33;;;9.70;56.40;;;;;;5055891;28;20337;-66
2022/03/27 16:31:40;;;;;;;6.27;2.80;;;9.70;56.90;;;;;;5052367;28;20233;-64
2022/03/27 16:34:30;;;;;;;8.67;2.80;;;9.70;56.80;;;;;;5035196;28;20246;-63
2022/03/27 16:37:19;;;;;;;7.57;2.73;;;9.70;57.10;;;;;;5054762;28;20245;-68
2022/03/27 16:40:08;;;;;;;5.70;2.53;;;9.60;56.90;;;;;;5054617;28;20239;-66
2022/03/27 16:42:57;;;;;;;6.63;2.60;;;9.60;57.50;;;;;;5038314;28;20231;-68
2022/03/27 16:45:46;;;;;;;6.97;2.60;;;9.60;57.50;;;;;;5056638;28;20226;-67
2022/03/27 16:48:37;;;;;;;7.40;2.77;;;9.60;57.50;;;;;;5049299;28;20328;-67
2022/03/27 16:51:25;;;;;;;6.77;2.70;;;9.60;57.60;;;;;;5050438;28;20545;-67
2022/03/27 16:54:14;;;;;;;6.23;2.70;;;9.50;58.00;;;;;;5061346;28;20234;-67
2022/03/27 16:57:04;;;;;;;9.93;2.90;;;9.50;58.10;;;;;;5054007;28;20228;-67
2022/03/27 16:59:52;;;;;;;7.33;2.90;;;9.50;58.10;;;;;;5058348;28;20711;-67
2022/03/27 17:02:42;;;;;;;5.17;2.50;;;9.50;58.10;;;;;;5041383;28;20232;-67
2022/03/27 17:05:33;;;;;;;6.57;2.90;;;9.50;58.50;;;;;;5053871;28;20537;-66
2022/03/27 17:08:21;;;;;;;10.27;3.57;;;9.30;59.00;;;;;;5051763;28;20309;-66
2022/03/27 17:11:10;;;;;;;10.17;3.60;;;9.40;58.70;;;;;;5043513;28;20234;-67
2022/03/27 17:13:59;;;;;;;8.87;3.47;;;9.40;58.70;;;;;;5038339;28;20277;-67
2022/03/27 17:16:48;;;;;;;9.67;3.47;;;9.40;58.80;;;;;;5055251;28;20231;-67
2022/03/27 17:19:37;;;;;;;6.47;3.23;;;9.40;58.80;;;;;;5040074;28;20232;-68
2022/03/27 17:22:27;;;;;;;9.73;3.53;;;9.40;58.70;;;;;;5055986;28;20828;-68
2022/03/27 17:25:17;;;;;;;10.30;3.73;;;9.40;58.80;;;;;;5053386;28;20224;-69
2022/03/27 17:28:06;;;;;;;8.80;3.90;;;9.30;58.80;;;;;;5058523;28;20254;-68
2022/03/27 17:30:55;;;;;;;12.67;4.23;;;9.30;59.10;;;;;;5054161;28;20230;-69
2022/03/27 17:33:43;;;;;;;9.63;4.07;;;9.30;59.20;;;;;;5044567;28;20825;-69
2022/03/27 17:36:32;;;;;;;9.67;3.53;;;9.30;59.30;;;;;;5042226;28;20890;-69
2022/03/27 17:39:22;;;;;;;12.90;4.43;;;9.20;59.40;;;;;;5054926;28;20236;-69
2022/03/27 17:42:12;;;;;;;8.87;3.63;;;9.20;59.40;;;;;;5043416;28;20279;-69